Time;durP1;ratioP1;P1;durP2;ratioP2;P2;SDS_P1;SDS_P2;PMS_P1;PMS_P2;Temp;Humidity;BMP_temperature;BMP_pressure;BME280_temperature;BME280_humidity;BME280_pressure;Samples;Min_cycle;Max_cycle;Signal;HPM_P1;HPM_P2
2021/12/04 00:00:08;;;;;;;9.40;6.43;;;-0.10;74.40;;;-1.25;61.39;94195.34;5035530;28;20319;-81
2021/12/04 00:02:39;;;;;;;11.02;6.28;;;-0.10;74.50;;;-1.27;61.33;94179.22;5035904;28;20192;-81
2021/12/04 00:05:08;;;;;;;9.20;5.90;;;0.00;74.50;;;-1.21;61.43;94176.13;5068576;28;20697;-82
2021/12/04 00:07:37;;;;;;;8.48;5.82;;;0.00;74.50;;;-1.18;61.38;94183.56;5045989;28;20221;-80
2021/12/04 00:10:06;;;;;;;7.88;5.57;;;0.00;74.40;;;-1.25;61.22;94174.75;5071639;28;20223;-80
2021/12/04 00:12:34;;;;;;;8.30;5.75;;;0.00;74.40;;;-1.18;61.10;94175.84;5054963;28;20203;-82
2021/12/04 00:15:02;;;;;;;7.35;5.47;;;0.00;74.40;;;-1.17;61.26;94164.59;5038371;28;20219;-80
2021/12/04 00:17:30;;;;;;;9.85;5.85;;;0.00;74.30;;;-1.17;61.09;94156.88;5071698;28;20203;-81
2021/12/04 00:19:57;;;;;;;9.88;6.32;;;0.00;74.30;;;-1.16;61.60;94153.34;5055073;28;20749;-81
2021/12/04 00:22:25;;;;;;;8.48;5.90;;;0.00;74.30;;;-1.17;61.29;94156.88;5105087;28;20335;-81
2021/12/04 00:24:52;;;;;;;8.80;6.15;;;0.10;74.40;;;-1.16;61.28;94144.81;5055035;28;20342;-81
2021/12/04 00:27:19;;;;;;;10.00;6.55;;;0.00;74.30;;;-1.14;61.44;94142.91;5054417;28;20770;-82
2021/12/04 00:29:47;;;;;;;7.95;5.72;;;0.10;74.50;;;-1.10;61.31;94140.88;5054556;28;20272;-79
2021/12/04 00:32:22;;;;;;;9.63;5.82;;;0.10;74.50;;;-1.09;61.29;94147.66;5051214;28;20196;-80
2021/12/04 00:34:55;;;;;;;10.45;6.53;;;0.10;74.50;;;-1.08;61.33;94144.94;5052079;28;20228;-80
2021/12/04 00:37:46;;;;;;;9.65;6.15;;;0.10;74.40;;;-1.09;61.33;94140.72;5068709;28;20208;-81
2021/12/04 00:51:19;;;;;;;10.65;6.95;;;0.10;74.20;;;-1.25;61.10;94122.50;5070600;28;20666;-80
2021/12/04 00:53:47;;;;;;;9.02;6.72;;;0.10;74.20;;;-1.28;61.13;94121.03;5067817;28;20219;-82
2021/12/04 00:56:15;;;;;;;7.72;5.97;;;0.00;74.10;;;-1.32;61.04;94120.50;5066417;28;20256;-81
2021/12/04 00:58:42;;;;;;;9.90;6.30;;;0.00;74.10;;;-1.33;61.03;94118.84;5054519;28;20209;-81
2021/12/04 01:01:09;;;;;;;9.25;5.95;;;0.00;74.10;;;-1.35;61.28;94119.94;5071417;28;20187;-81
2021/12/04 01:03:36;;;;;;;10.45;6.03;;;0.00;74.10;;;-1.40;61.10;94117.78;5067420;28;20291;-82
2021/12/04 01:06:06;;;;;;;9.27;5.63;;;0.00;74.10;;;-1.41;61.21;94116.16;5054099;28;20257;-84
2021/12/04 01:08:34;;;;;;;8.13;5.75;;;-0.10;74.00;;;-1.45;61.26;94109.69;5038583;28;20220;-82
2021/12/04 01:11:02;;;;;;;7.93;6.10;;;-0.10;74.00;;;-1.50;61.16;94099.81;5071865;28;20571;-79
2021/12/04 01:13:31;;;;;;;10.07;6.07;;;-0.10;74.10;;;-1.45;61.33;94104.53;5038520;28;20202;-80
2021/12/04 01:15:58;;;;;;;8.18;6.13;;;-0.10;74.20;;;-1.47;61.20;94093.56;5088460;28;20287;-80
2021/12/04 01:18:26;;;;;;;8.02;5.25;;;-0.20;74.00;;;-1.49;61.14;94098.84;5038462;28;20200;-80
2021/12/04 01:20:54;;;;;;;7.45;5.38;;;-0.20;74.00;;;-1.50;61.02;94102.38;5055238;28;20197;-79
2021/12/04 01:23:24;;;;;;;8.27;5.50;;;-0.20;74.00;;;-1.52;61.42;94111.19;5056759;28;20191;-81
2021/12/04 01:25:51;;;;;;;7.28;5.28;;;-0.20;74.10;;;-1.53;61.43;94104.41;5058020;28;20199;-82
2021/12/04 01:28:18;;;;;;;7.40;5.28;;;-0.20;74.20;;;-1.55;61.41;94096.84;5058527;28;20569;-82
2021/12/04 01:30:45;;;;;;;6.95;4.93;;;-0.20;74.20;;;-1.53;61.43;94104.41;5057956;28;20364;-82
2021/12/04 01:33:13;;;;;;;7.03;5.05;;;-0.20;74.20;;;-1.54;61.27;94092.50;5056755;28;20229;-82
2021/12/04 01:35:41;;;;;;;5.93;4.25;;;-0.20;74.30;;;-1.52;61.22;94093.97;5057575;28;20754;-81
2021/12/04 01:38:10;;;;;;;6.70;4.75;;;-0.20;74.20;;;-1.52;61.31;94083.69;5041623;28;20195;-82
2021/12/04 01:40:38;;;;;;;6.35;4.68;;;-0.30;74.20;;;-1.52;61.16;94086.25;5057472;28;20758;-81
2021/12/04 01:43:07;;;;;;;6.63;4.45;;;-0.20;74.20;;;-1.52;61.29;94091.41;5090990;28;20282;-82
2021/12/04 01:45:35;;;;;;;6.60;4.63;;;-0.20;74.20;;;-1.55;61.16;94088.28;5041753;28;20632;-81
2021/12/04 01:48:04;;;;;;;6.03;4.07;;;-0.30;74.00;;;-1.60;60.84;94075.84;5057933;28;20215;-81
2021/12/04 01:50:33;;;;;;;6.72;4.15;;;-0.30;73.90;;;-1.66;61.04;94077.22;5090985;28;20235;-81
2021/12/04 01:53:02;;;;;;;5.93;4.68;;;-0.30;73.90;;;-1.69;61.25;94072.34;5088711;28;20202;-81
2021/12/04 01:55:37;;;;;;;5.90;4.55;;;-0.30;73.80;;;-1.74;61.06;94056.53;5090628;28;20269;-81
2021/12/04 01:58:05;;;;;;;7.35;4.75;;;-0.40;73.90;;;-1.78;61.00;94052.63;5107849;28;20626;-82
2021/12/04 02:00:38;;;;;;;6.75;4.75;;;-0.40;73.80;;;-1.81;61.44;94050.31;5057143;28;20218;-82
2021/12/04 02:03:08;;;;;;;7.95;5.82;;;-0.40;73.80;;;-1.86;61.27;94047.34;5054036;28;20200;-81
2021/12/04 02:05:38;;;;;;;6.88;5.32;;;-0.50;73.70;;;-1.90;61.33;94049.38;5057423;28;20211;-81
2021/12/04 02:08:08;;;;;;;7.10;5.00;;;-0.50;73.80;;;-1.91;61.12;94044.38;5090502;28;20231;-81
2021/12/04 02:10:36;;;;;;;7.13;5.22;;;-0.50;73.90;;;-1.94;61.60;94045.47;5074297;28;20227;-80
2021/12/04 02:13:04;;;;;;;6.93;5.10;;;-0.60;73.90;;;-1.93;61.06;94034.22;5086875;28;20279;-81
2021/12/04 02:15:31;;;;;;;6.28;4.70;;;-0.60;73.80;;;-1.95;61.11;94036.16;5053694;28;20224;-81
2021/12/04 02:17:59;;;;;;;8.77;5.10;;;-0.60;73.90;;;-2.07;61.16;94014.91;5036899;28;20200;-82
2021/12/04 02:20:28;;;;;;;7.57;5.13;;;-0.60;73.90;;;-2.00;61.42;94031.41;5053799;28;20215;-81
2021/12/04 02:22:56;;;;;;;6.70;4.70;;;-0.70;73.90;;;-2.03;61.14;94028.31;5063692;28;20203;-82
2021/12/04 02:25:24;;;;;;;7.07;5.10;;;-0.70;73.80;;;-2.07;61.15;94012.34;5057178;28;20214;-82
2021/12/04 02:27:51;;;;;;;6.25;4.70;;;-0.70;73.80;;;-2.11;61.21;94006.66;5090125;28;20310;-82
2021/12/04 02:30:26;;;;;;;8.45;5.68;;;-0.70;73.90;;;-2.14;60.98;94001.00;5073424;28;20223;-81
2021/12/04 02:32:54;;;;;;;8.23;5.30;;;-0.80;73.80;;;-2.19;61.00;93993.69;5073518;28;20203;-81
2021/12/04 02:35:25;;;;;;;9.38;6.10;;;-0.80;73.70;;;-2.24;60.89;93995.06;5057049;28;20211;-82
2021/12/04 02:37:54;;;;;;;11.45;6.40;;;-0.80;73.70;;;-2.30;60.83;93986.94;5057112;28;20206;-82
2021/12/04 02:40:23;;;;;;;9.32;6.10;;;-0.80;73.70;;;-2.35;60.96;93985.75;5056661;28;20215;-81
2021/12/04 02:42:51;;;;;;;9.50;6.15;;;-0.90;73.60;;;-2.42;60.76;93980.31;5055858;28;20286;-82
2021/12/04 02:45:18;;;;;;;8.98;6.53;;;-1.00;73.50;;;-2.50;60.73;93967.34;5056562;28;20310;-82
2021/12/04 02:47:45;;;;;;;10.38;5.80;;;-1.00;73.50;;;-2.58;60.87;93963.69;5073386;28;20215;-82
2021/12/04 02:50:14;;;;;;;11.27;7.00;;;-1.10;73.50;;;-2.66;60.92;93960.19;5072929;28;20235;-81
2021/12/04 02:52:43;;;;;;;10.35;6.75;;;-1.10;73.40;;;-2.73;60.72;93949.66;5053172;28;20220;-82
2021/12/04 02:55:10;;;;;;;8.85;6.03;;;-1.20;73.40;;;-2.86;61.02;93939.66;5052358;28;20216;-81
2021/12/04 02:57:43;;;;;;;9.70;6.55;;;-1.20;73.40;;;-2.91;60.73;93944.38;5045393;28;20243;-81
2021/12/04 03:00:24;;;;;;;9.15;5.88;;;-1.30;73.40;;;-2.97;61.05;93940.56;5052859;28;20219;-80
2021/12/04 03:02:51;;;;;;;9.35;6.15;;;-1.30;73.60;;;-3.03;61.16;93938.53;5053649;28;20190;-80
2021/12/04 03:05:24;;;;;;;9.70;6.30;;;-1.40;73.50;;;-3.07;61.04;93943.13;5053802;28;20241;-81
2021/12/04 03:07:53;;;;;;;11.70;6.15;;;-1.50;73.50;;;-3.13;61.29;93937.72;5080437;28;20215;-82
2021/12/04 03:10:22;;;;;;;7.55;5.30;;;-1.50;73.60;;;-3.17;61.43;93933.78;5043076;28;20212;-81
2021/12/04 03:12:49;;;;;;;8.50;5.65;;;-1.60;74.50;;;-3.18;61.09;93932.19;5069449;28;20249;-80
2021/12/04 03:15:17;;;;;;;8.07;5.63;;;-1.60;73.70;;;-3.20;61.63;93927.19;5042822;28;20265;-80
2021/12/04 03:17:44;;;;;;;7.88;5.45;;;-1.60;73.80;;;-3.25;61.56;93917.34;5072019;28;20730;-81
2021/12/04 03:20:11;;;;;;;6.80;4.82;;;-1.70;73.80;;;-3.20;61.30;93923.81;5054315;28;20322;-82
2021/12/04 03:22:43;;;;;;;6.63;4.82;;;-1.70;73.90;;;-3.24;61.48;93913.81;5058537;28;20215;-81
2021/12/04 03:25:10;;;;;;;6.03;4.43;;;-1.70;74.00;;;-3.27;61.65;93919.22;5078773;28;20234;-82
2021/12/04 03:27:48;;;;;;;6.40;3.97;;;-1.70;74.00;;;-3.19;61.71;93920.31;5069786;28;20195;-81
2021/12/04 03:35:18;;;;;;;6.47;4.47;;;-1.80;74.00;;;-3.17;61.60;93903.84;5096223;28;20195;-81
2021/12/04 03:41:07;;;;;;;6.55;4.38;;;-1.70;74.20;;;-3.07;61.97;93891.81;5054211;28;20219;-82
2021/12/04 03:43:35;;;;;;;6.25;4.13;;;-1.70;74.50;;;-3.01;62.00;93887.94;5031670;28;20195;-82
2021/12/04 03:46:05;;;;;;;4.90;3.78;;;-1.70;74.40;;;-2.96;61.99;93879.84;5048559;28;20196;-82
2021/12/04 03:51:04;;;;;;;5.63;3.85;;;-1.70;74.40;;;-2.90;61.79;93871.59;5065051;28;20200;-81
2021/12/04 03:53:31;;;;;;;5.32;3.33;;;-1.60;74.40;;;-2.88;61.71;93868.88;5052599;28;20257;-81
2021/12/04 03:55:59;;;;;;;4.70;3.67;;;-1.60;74.40;;;-2.87;61.75;93868.75;5053311;28;20302;-82
2021/12/04 03:58:26;;;;;;;5.03;3.58;;;-1.60;74.40;;;-2.83;61.75;93864.16;5036998;28;20588;-82
2021/12/04 04:00:55;;;;;;;4.40;3.33;;;-1.60;74.40;;;-2.85;61.71;93851.47;5053666;28;20211;-81
2021/12/04 04:03:25;;;;;;;4.70;3.53;;;-1.60;74.40;;;-2.76;61.83;93862.66;5053624;28;20234;-82
2021/12/04 04:05:52;;;;;;;4.50;3.10;;;-1.50;74.40;;;-2.80;61.72;93849.28;5055193;28;20207;-81
2021/12/04 04:08:19;;;;;;;4.03;3.17;;;-1.50;74.40;;;-2.72;61.52;93863.19;5038486;28;20625;-81
2021/12/04 04:10:49;;;;;;;5.15;3.83;;;-1.50;74.30;;;-2.70;61.64;93867.25;5051486;28;20585;-82
2021/12/04 04:13:16;;;;;;;4.88;3.42;;;-1.50;74.30;;;-2.68;61.54;93867.94;5068423;28;20210;-82
2021/12/04 04:15:43;;;;;;;5.78;3.83;;;-1.40;74.40;;;-2.70;61.69;93862.09;5051604;28;20616;-81
2021/12/04 04:18:10;;;;;;;21.65;10.85;;;-1.40;74.40;;;-2.66;61.45;93858.34;5035306;28;20211;-81
2021/12/04 04:20:37;;;;;;;20.58;9.73;;;-1.40;74.40;;;-2.58;61.69;93867.91;5077758;28;20211;-81
2021/12/04 04:23:04;;;;;;;14.30;6.90;;;-1.40;74.50;;;-2.56;61.66;93866.03;5087983;28;20645;-82
2021/12/04 04:25:32;;;;;;;9.38;5.18;;;-1.30;74.50;;;-2.50;61.50;93856.94;5054744;28;20219;-81
2021/12/04 04:27:59;;;;;;;8.00;5.18;;;-1.30;74.50;;;-2.46;61.62;93859.09;5087732;28;20197;-82
2021/12/04 04:30:26;;;;;;;5.93;4.32;;;-1.30;74.40;;;-2.42;61.70;93849.38;5054663;28;20302;-81
2021/12/04 04:32:54;;;;;;;5.50;4.10;;;-1.20;74.40;;;-2.38;61.52;93847.34;5050647;28;20204;-81
2021/12/04 04:35:25;;;;;;;5.45;3.92;;;-1.20;74.40;;;-2.36;61.47;93842.88;5051246;28;20302;-81
2021/12/04 04:38:06;;;;;;;5.82;4.07;;;-1.20;74.40;;;-2.33;61.59;93837.44;5067036;28;20223;-81
2021/12/04 05:10:16;;;;;;;6.20;4.82;;;-0.90;74.50;;;-1.98;61.44;93802.56;5018870;28;20209;-82
2021/12/04 05:11:43;;;;;;;8.25;5.57;;;-0.80;74.50;;;-1.88;61.36;93784.53;5056393;28;20441;-82
2021/12/04 05:14:18;;;;;;;7.03;5.35;;;-0.70;74.50;;;-1.80;61.36;93787.19;5071301;28;20247;-82
2021/12/04 05:16:51;;;;;;;10.13;5.97;;;-0.70;74.50;;;-1.77;61.65;93779.19;5070867;28;20201;-81
2021/12/04 05:19:38;;;;;;;8.15;5.82;;;-0.70;74.60;;;-1.74;61.25;93771.19;5078683;28;20220;-82
2021/12/04 05:22:13;;;;;;;9.63;6.25;;;-0.70;74.40;;;-1.70;61.21;93769.16;5053550;28;20222;-82
2021/12/04 05:24:41;;;;;;;8.73;6.00;;;-0.60;74.40;;;-1.68;61.07;93760.34;5060388;28;20620;-82
2021/12/04 05:27:09;;;;;;;9.98;5.63;;;-0.50;74.50;;;-1.68;61.25;93754.41;5067448;28;20196;-82
2021/12/04 05:29:41;;;;;;;7.65;5.53;;;-0.50;74.40;;;-1.69;61.30;93758.72;5050741;28;20690;-81
2021/12/04 05:32:10;;;;;;;9.05;5.50;;;-0.50;74.40;;;-1.61;61.15;93769.09;5050953;28;20227;-82
2021/12/04 05:34:37;;;;;;;6.65;5.10;;;-0.50;74.30;;;-1.57;61.22;93768.81;5083785;28;20704;-81
2021/12/04 05:37:05;;;;;;;8.88;5.40;;;-0.50;74.30;;;-1.54;61.08;93760.78;5102836;28;20410;-79
2021/12/04 05:39:32;;;;;;;7.40;5.53;;;-0.50;74.30;;;-1.54;61.17;93758.22;5082855;28;20215;-79
2021/12/04 05:42:00;;;;;;;9.15;5.30;;;-0.40;74.30;;;-1.53;61.12;93754.69;5054154;28;20294;-79
2021/12/04 05:44:29;;;;;;;7.47;5.40;;;-0.40;74.30;;;-1.52;61.15;93758.88;5054068;28;20228;-81
2021/12/04 05:47:05;;;;;;;10.70;6.07;;;-0.40;74.30;;;-1.52;61.37;93764.81;5037892;28;20206;-81
2021/12/04 05:57:39;;;;;;;8.82;6.05;;;-0.30;74.30;;;-1.52;60.99;93743.44;5074308;28;20187;-80
2021/12/04 06:00:23;;;;;;;7.63;5.53;;;-0.30;74.20;;;-1.52;61.02;93744.25;5057332;28;20220;-82
2021/12/04 06:02:51;;;;;;;8.70;5.20;;;-0.40;74.20;;;-1.52;61.08;93740.88;5057341;28;20248;-82
2021/12/04 06:05:18;;;;;;;7.45;5.32;;;-0.30;74.30;;;-1.47;60.94;93743.81;5073908;28;20223;-81
2021/12/04 06:07:45;;;;;;;8.35;5.25;;;-0.30;74.30;;;-1.48;61.13;93737.88;5057549;28;20187;-81
2021/12/04 06:10:13;;;;;;;7.57;5.00;;;-0.30;74.20;;;-1.48;61.09;93737.88;5040675;28;20237;-81
2021/12/04 06:12:41;;;;;;;8.13;5.10;;;-0.30;74.20;;;-1.48;60.96;93730.16;5073735;28;20667;-82
2021/12/04 06:15:08;;;;;;;6.78;4.80;;;-0.20;74.30;;;-1.46;60.63;93720.50;5057386;28;20215;-82
2021/12/04 06:17:36;;;;;;;6.78;4.85;;;-0.30;74.20;;;-1.42;61.17;93718.47;5041079;28;20203;-82
2021/12/04 06:22:50;;;;;;;13.85;7.20;;;-0.30;74.20;;;-1.38;61.14;93731.84;5059474;28;20203;-81
2021/12/04 06:25:24;;;;;;;7.47;5.90;;;-0.20;74.30;;;-1.35;61.17;93734.91;5040334;28;20220;-80
2021/12/04 06:27:52;;;;;;;8.23;5.90;;;-0.30;74.20;;;-1.32;60.58;93732.06;5056995;28;20199;-81
2021/12/04 06:30:21;;;;;;;6.50;4.60;;;-0.20;74.20;;;-1.24;61.08;93717.66;5055324;28;20224;-80
2021/12/04 06:32:52;;;;;;;6.78;4.85;;;-0.20;74.30;;;-1.21;61.08;93717.34;5089162;28;20215;-81
2021/12/04 06:35:24;;;;;;;8.15;5.45;;;-0.10;74.50;;;-1.10;61.30;93719.66;5037050;28;20263;-81
2021/12/04 06:37:52;;;;;;;6.75;4.93;;;-0.10;74.50;;;-1.02;61.24;93716.34;5080513;28;20743;-80
2021/12/04 06:40:25;;;;;;;7.03;5.10;;;0.00;74.60;;;-0.93;61.42;93730.09;5089904;28;20222;-79
2021/12/04 06:42:54;;;;;;;6.75;5.05;;;0.00;74.50;;;-0.86;61.13;93720.81;5088981;28;20206;-81
2021/12/04 06:45:21;;;;;;;7.07;5.00;;;0.10;74.60;;;-0.79;61.06;93718.41;5055396;28;20317;-80
2021/12/04 06:48:02;;;;;;;6.10;4.70;;;0.10;74.60;;;-0.79;60.86;93716.66;5087706;28;20200;-81
2021/12/04 06:55:54;;;;;;;6.43;4.28;;;0.30;74.60;;;-0.53;60.54;93719.19;5071939;28;20210;-81
2021/12/04 06:58:24;;;;;;;6.00;4.38;;;0.40;74.60;;;-0.45;61.20;93718.44;5052880;28;20287;-81
2021/12/04 07:00:52;;;;;;;5.50;4.00;;;0.40;74.60;;;-0.39;61.02;93710.09;5038491;28;20200;-80
2021/12/04 07:03:19;;;;;;;5.32;4.30;;;0.50;74.70;;;-0.35;60.81;93706.25;5051955;28;20292;-82
2021/12/04 07:05:47;;;;;;;5.68;4.20;;;0.50;74.60;;;-0.23;60.96;93705.97;5055477;28;20234;-81
2021/12/04 07:08:15;;;;;;;7.00;5.10;;;0.60;74.70;;;-0.15;60.90;93702.63;5038777;28;20199;-81
2021/12/04 07:10:42;;;;;;;8.10;5.43;;;0.70;74.70;;;-0.09;60.97;93692.47;5055682;28;20684;-81
2021/12/04 07:13:10;;;;;;;6.60;5.10;;;0.80;74.90;;;-0.01;60.98;93687.34;5055544;28;20191;-80
2021/12/04 07:15:40;;;;;;;7.72;5.88;;;0.80;74.80;;;0.05;60.78;93691.09;5106122;28;20212;-81
2021/12/04 07:18:07;;;;;;;11.50;6.80;;;0.80;74.70;;;0.10;60.65;93694.00;5055947;28;20665;-81
2021/12/04 07:20:35;;;;;;;7.88;5.55;;;0.90;74.70;;;0.15;60.58;93689.16;5072444;28;20207;-80
2021/12/04 07:23:03;;;;;;;8.98;6.13;;;1.00;74.70;;;0.20;60.84;93672.44;5088985;28;20226;-81
2021/12/04 07:25:31;;;;;;;12.38;7.75;;;1.00;74.60;;;0.25;60.60;93670.97;5071455;28;20226;-81
2021/12/04 07:27:58;;;;;;;17.50;9.88;;;1.10;74.60;;;0.28;60.81;93672.41;5035757;28;20238;-82
2021/12/04 07:30:26;;;;;;;12.38;8.00;;;1.10;74.60;;;0.34;60.81;93668.41;5052206;28;20242;-80
2021/12/04 07:32:53;;;;;;;10.20;7.03;;;1.20;74.70;;;0.39;60.60;93666.16;5049724;28;20617;-81
2021/12/04 07:35:20;;;;;;;11.52;6.70;;;1.20;74.70;;;0.36;60.75;93646.63;5053546;28;20608;-80
2021/12/04 07:37:47;;;;;;;9.75;6.53;;;1.30;74.60;;;0.48;60.77;93662.63;5035707;28;20208;-80
2021/12/04 07:40:20;;;;;;;6.55;5.18;;;1.30;74.60;;;0.52;60.61;93661.31;5036380;28;20310;-80
2021/12/04 07:42:47;;;;;;;9.35;6.30;;;1.40;74.60;;;0.57;60.56;93663.41;5047067;28;20674;-81
2021/12/04 07:45:14;;;;;;;10.55;7.28;;;1.40;74.60;;;0.62;60.72;93656.81;5038034;28;20227;-80
2021/12/04 07:47:41;;;;;;;9.20;6.68;;;1.40;74.60;;;0.66;60.25;93657.28;5055410;28;20195;-82
2021/12/04 07:50:10;;;;;;;12.10;8.65;;;1.50;74.60;;;0.64;60.30;93654.84;5054678;28;20249;-82
2021/12/04 07:52:38;;;;;;;25.08;17.77;;;1.50;74.60;;;0.71;60.47;93649.03;5053417;28;20196;-82
2021/12/04 07:55:08;;;;;;;14.55;11.15;;;1.60;74.60;;;0.76;60.41;93649.38;5071165;28;20624;-81
2021/12/04 07:57:36;;;;;;;13.20;10.02;;;1.60;74.40;;;0.77;60.75;93649.22;5034776;28;20579;-81
2021/12/04 08:00:11;;;;;;;12.07;8.32;;;1.60;74.40;;;0.76;60.22;93634.69;5062552;28;20227;-81
2021/12/04 08:02:41;;;;;;;9.70;6.88;;;1.70;74.30;;;0.76;60.70;93639.84;5071298;28;20236;-79
2021/12/04 08:05:10;;;;;;;9.25;6.80;;;1.70;74.40;;;0.80;60.28;93646.28;5055783;28;20215;-80
2021/12/04 08:07:38;;;;;;;10.18;6.53;;;1.70;74.30;;;0.79;60.11;93639.53;5054774;28;20202;-80
2021/12/04 08:10:10;;;;;;;13.15;8.45;;;1.80;74.40;;;0.84;60.30;93641.59;5054939;28;20258;-81
2021/12/04 08:12:37;;;;;;;13.27;9.10;;;1.80;74.40;;;0.88;60.38;93635.16;5054402;28;20497;-81
2021/12/04 08:15:08;;;;;;;14.63;8.60;;;1.80;74.40;;;0.89;60.05;93631.63;5054011;28;20226;-80
2021/12/04 08:17:36;;;;;;;13.43;8.30;;;1.80;74.40;;;0.96;60.43;93631.75;5055204;28;20202;-81
2021/12/04 08:20:05;;;;;;;12.85;7.75;;;1.90;74.60;;;1.06;60.81;93626.41;5054898;28;20336;-80
2021/12/04 08:22:35;;;;;;;11.63;7.68;;;1.90;74.60;;;1.06;60.56;93614.31;5037268;28;20203;-80
2021/12/04 08:25:04;;;;;;;12.15;8.13;;;1.90;74.60;;;1.20;60.41;93622.34;5070403;28;20611;-80
2021/12/04 08:27:31;;;;;;;10.98;7.43;;;2.00;74.70;;;1.23;59.97;93622.81;5054967;28;20199;-81
2021/12/04 08:29:58;;;;;;;12.05;7.50;;;2.00;74.60;;;1.28;60.03;93620.53;5087428;28;20337;-81
2021/12/04 08:32:26;;;;;;;11.90;7.13;;;2.10;74.60;;;1.31;60.40;93623.75;5083275;28;20192;-81
2021/12/04 08:34:54;;;;;;;11.00;6.93;;;2.10;74.60;;;1.33;60.34;93620.06;5068691;28;20223;-80
2021/12/04 08:37:21;;;;;;;11.90;7.28;;;2.20;74.60;;;1.35;60.25;93617.28;5067840;28;20199;-81
2021/12/04 08:39:49;;;;;;;9.13;6.28;;;2.20;74.60;;;1.34;60.41;93607.94;5071148;28;20247;-81
2021/12/04 08:42:19;;;;;;;8.38;6.00;;;2.20;74.60;;;1.37;60.24;93599.84;5054724;28;20202;-80
2021/12/04 08:44:48;;;;;;;11.20;6.88;;;2.20;74.60;;;1.45;60.52;93607.53;5075815;28;20214;-80
2021/12/04 08:47:15;;;;;;;11.27;7.47;;;2.20;74.60;;;1.47;60.36;93600.44;5050933;28;20287;-80
2021/12/04 08:49:43;;;;;;;16.85;11.27;;;2.30;74.70;;;1.54;60.55;93600.59;5051006;28;20308;-79
2021/12/04 08:52:11;;;;;;;16.58;10.43;;;2.30;74.80;;;1.61;60.38;93611.84;5054753;28;20381;-79
2021/12/04 08:54:39;;;;;;;14.02;8.48;;;2.40;74.80;;;1.59;60.22;93611.22;5071141;28;20215;-80
2021/12/04 08:57:06;;;;;;;19.92;11.23;;;2.40;74.80;;;1.64;60.31;93605.53;5070538;28;20203;-81
2021/12/04 08:59:34;;;;;;;19.98;10.73;;;2.50;74.80;;;1.67;60.46;93610.38;5069909;28;20265;-80
2021/12/04 09:02:03;;;;;;;15.15;9.15;;;2.50;74.70;;;1.69;60.38;93621.34;5054645;28;20298;-81
2021/12/04 09:04:35;;;;;;;14.25;9.13;;;2.50;74.70;;;1.69;60.29;93631.69;5054113;28;20749;-81
2021/12/04 09:07:04;;;;;;;12.15;8.88;;;2.50;74.60;;;1.69;59.98;93632.47;5066973;28;20230;-83
2021/12/04 09:09:34;;;;;;;13.20;8.80;;;2.60;74.60;;;1.70;60.40;93626.34;5067090;28;20231;-81
2021/12/04 09:12:23;;;;;;;14.55;7.72;;;2.60;74.60;;;1.72;60.45;93614.06;5065057;28;20681;-81
2021/12/04 09:14:50;;;;;;;13.32;7.05;;;2.60;74.60;;;1.69;60.35;93605.84;5033856;28;20219;-81
2021/12/04 09:17:19;;;;;;;13.40;7.60;;;2.60;74.70;;;1.73;60.44;93596.75;5051607;28;20203;-82
2021/12/04 09:19:48;;;;;;;18.40;9.23;;;2.60;74.70;;;1.79;60.43;93598.66;5054406;28;20215;-81
2021/12/04 09:22:25;;;;;;;23.13;10.63;;;2.70;74.80;;;1.80;60.48;93604.66;5054522;28;20199;-81
2021/12/04 09:25:02;;;;;;;25.02;14.90;;;2.70;74.80;;;1.86;60.63;93609.13;5063145;28;20226;-82
2021/12/04 10:00:48;;;;;;;12.90;8.82;;;3.30;75.30;;;2.75;60.98;93563.81;5073633;28;20250;-80
2021/12/04 10:03:36;;;;;;;14.43;9.00;;;3.40;76.10;;;2.79;60.45;93547.75;5074296;28;20186;-80
2021/12/04 10:11:58;;;;;;;12.63;8.02;;;3.60;75.00;;;2.91;60.31;93524.81;5073462;28;20215;-81
2021/12/04 10:22:32;;;;;;;12.93;9.85;;;3.80;75.10;;;3.14;59.86;93519.53;5036772;28;20208;-80
2021/12/04 10:33:45;;;;;;;23.13;14.30;;;3.90;75.00;;;3.25;59.96;93501.91;5059279;28;20551;-81
2021/12/04 10:36:26;;;;;;;16.10;9.93;;;4.00;74.80;;;3.32;60.22;93484.63;5090291;28;20206;-80
2021/12/04 10:38:54;;;;;;;11.52;7.88;;;4.00;75.10;;;3.37;60.14;93495.28;5089020;28;20229;-80
2021/12/04 10:41:34;;;;;;;13.13;9.30;;;4.00;75.00;;;3.42;59.98;93481.75;5056908;28;20203;-81
2021/12/04 10:44:17;;;;;;;15.68;9.77;;;4.10;74.90;;;3.41;59.87;93477.59;5056594;28;20234;-80
2021/12/04 10:47:10;;;;;;;17.55;10.45;;;4.10;74.80;;;3.46;60.30;93478.63;5053464;28;20662;-80
2021/12/04 10:52:57;;;;;;;23.40;12.18;;;4.20;74.80;;;3.52;60.16;93472.69;5073780;28;20589;-80
2021/12/04 10:55:51;;;;;;;15.10;9.50;;;4.20;74.80;;;3.51;59.77;93462.53;5059144;28;20222;-80
2021/12/04 11:06:45;;;;;;;29.10;16.50;;;4.30;74.70;;;3.45;59.83;93453.69;5073038;28;20209;-80
2021/12/04 11:42:48;;;;;;;13.40;8.93;;;4.30;74.60;;;3.52;59.84;93430.44;5072346;28;20210;-79
2021/12/04 11:45:24;;;;;;;21.27;11.35;;;4.20;74.50;;;3.54;59.98;93428.47;5070659;28;20254;-80
2021/12/04 11:48:01;;;;;;;19.02;11.90;;;4.30;74.60;;;3.55;59.84;93430.03;5088909;28;20219;-80
2021/12/04 11:50:38;;;;;;;17.88;11.13;;;4.30;74.60;;;3.58;59.83;93434.09;5056599;28;20249;-80
2021/12/04 11:53:17;;;;;;;14.90;9.32;;;4.30;74.50;;;3.59;59.83;93428.69;5055238;28;20221;-80
2021/12/04 11:55:48;;;;;;;11.23;7.63;;;4.40;74.50;;;3.61;59.99;93425.91;5055676;28;20234;-81
2021/12/04 11:58:27;;;;;;;8.38;6.15;;;4.40;74.60;;;3.61;59.94;93426.72;5080210;28;20189;-79
2021/12/04 12:01:04;;;;;;;7.30;6.10;;;4.40;74.50;;;3.61;59.73;93428.50;5089174;28;20217;-79
2021/12/04 12:03:35;;;;;;;7.55;5.75;;;4.40;74.50;;;3.60;60.03;93426.91;5072536;28;20195;-79
2021/12/04 12:06:10;;;;;;;8.50;5.68;;;4.40;74.40;;;3.57;59.51;93420.31;5071705;28;20716;-79
2021/12/04 12:08:45;;;;;;;7.25;5.72;;;4.40;74.30;;;3.59;59.50;93428.69;5065834;28;20195;-78
2021/12/04 12:11:28;;;;;;;7.50;5.25;;;4.40;74.40;;;3.57;59.73;93422.09;5072441;28;20561;-79
2021/12/04 12:14:11;;;;;;;35.40;19.77;;;4.40;75.10;;;3.57;59.74;93414.31;5054762;28;20309;-80
2021/12/04 12:16:53;;;;;;;38.15;17.15;;;4.40;74.30;;;3.50;60.14;93393.50;5054428;28;21208;-79
2021/12/04 12:19:29;;;;;;;65.40;28.98;;;4.40;74.20;;;3.57;59.46;93411.72;5055054;28;20273;-79
2021/12/04 12:22:08;;;;;;;79.70;41.22;;;4.40;74.30;;;3.54;59.66;93402.53;5055466;28;20584;-80
2021/12/04 12:36:11;;;;;;;14.23;11.20;;;4.30;74.30;;;3.46;59.74;93392.28;5054947;28;20200;-79
2021/12/04 12:39:08;;;;;;;17.20;10.15;;;4.30;74.30;;;3.45;60.02;93396.66;5054155;28;20199;-80
2021/12/04 12:41:45;;;;;;;12.23;8.93;;;4.30;74.20;;;3.43;59.70;93384.88;5051450;28;20563;-80
2021/12/04 12:44:28;;;;;;;14.23;10.10;;;4.30;74.30;;;3.47;59.67;93394.69;5067897;28;20641;-79
2021/12/04 12:47:00;;;;;;;9.45;7.03;;;4.30;74.30;;;3.47;59.85;93379.13;5046948;28;20207;-79
2021/12/04 12:49:39;;;;;;;14.20;9.70;;;4.40;74.40;;;3.47;59.61;93371.38;5053879;28;20646;-79
2021/12/04 12:52:10;;;;;;;162.10;78.65;;;4.30;74.40;;;3.48;59.69;93383.34;5071003;28;20293;-79
2021/12/04 12:54:44;;;;;;;60.50;37.55;;;4.30;74.30;;;3.47;59.58;93368.78;5087498;28;20685;-79
2021/12/04 12:57:28;;;;;;;52.33;33.60;;;4.30;74.30;;;3.46;59.76;93374.94;5062319;28;20187;-80
2021/12/04 13:14:10;;;;;;;7.70;6.10;;;4.30;74.30;;;3.36;59.96;93345.97;5060028;28;20246;-79
2021/12/04 13:16:41;;;;;;;7.25;5.72;;;4.30;74.30;;;3.36;59.96;93351.94;5056875;28;20579;-80
2021/12/04 13:19:11;;;;;;;6.50;5.43;;;4.30;74.40;;;3.35;59.58;93341.75;5041848;28;20215;-79
2021/12/04 13:21:43;;;;;;;6.72;5.68;;;4.30;74.40;;;3.38;59.71;93353.53;5075352;28;20596;-80
2021/12/04 13:24:12;;;;;;;6.82;5.50;;;4.30;74.40;;;3.38;60.20;93349.13;5057402;28;20215;-80
2021/12/04 13:26:49;;;;;;;6.10;5.28;;;4.30;74.40;;;3.39;59.62;93355.94;5091397;28;20200;-80
2021/12/04 13:29:23;;;;;;;7.40;5.40;;;4.30;74.40;;;3.37;59.99;93344.97;5062374;28;20277;-79
2021/12/04 13:31:58;;;;;;;8.95;6.03;;;4.30;74.30;;;3.35;59.71;93331.38;5050191;28;20214;-80
2021/12/04 13:34:28;;;;;;;10.75;6.60;;;4.20;74.20;;;3.33;59.78;93339.34;5057767;28;20585;-81
2021/12/04 13:37:01;;;;;;;12.93;6.93;;;4.20;74.20;;;3.31;60.06;93341.31;5054311;28;20317;-80
2021/12/04 13:39:29;;;;;;;10.50;6.68;;;4.20;74.20;;;3.28;59.97;93338.31;5071046;28;20559;-80
2021/12/04 13:41:58;;;;;;;14.65;9.57;;;4.20;74.30;;;3.25;59.87;93347.25;5063616;28;20699;-80
2021/12/04 13:44:28;;;;;;;22.75;13.07;;;4.20;74.30;;;3.25;60.03;93342.06;5106290;28;20239;-79
2021/12/04 13:47:04;;;;;;;16.80;9.77;;;4.20;74.30;;;3.23;59.93;93341.44;5074244;28;20551;-79
2021/12/04 13:49:51;;;;;;;12.82;8.75;;;4.10;74.20;;;3.20;59.85;93344.41;5074107;28;20223;-79